Terminal Aerodrome Forecast
Issued by NWS

Home | Current Version | Previous Version | Text Only | Print | Product List | Glossary On
Versions: 1 2 3 4 5 6 7 8 9 10 11 12 13 14
755
FTUS44 KTSA 281127
TAFMLC
TAF
KMLC 281127Z 2812/2912 VRB04KT P6SM FEW110
     FM281230 14011KT P6SM OVC015
     FM281900 17008KT P6SM BKN035
     FM290200 10007KT P6SM VCTS BKN040CB
     FM290600 15008KT P6SM VCTS OVC015CB
      TEMPO 2908/2912 2SM TSRA BR BKN020CB=

USA.gov is the U.S. government's official web portal to all federal, state and local government web resources and services.